Time;durP1;ratioP1;P1;durP2;ratioP2;P2;SDS_P1;SDS_P2;PMS_P1;PMS_P2;Temp;Humidity;BMP_temperature;BMP_pressure;BME280_temperature;BME280_humidity;BME280_pressure;Samples;Min_cycle;Max_cycle;Signal;HPM_P1;HPM_P2
2022/10/30 14:31:33;;;;;;;24.30;8.02;;;;;;;;;;4995982;22;20927;-62
2022/10/30 14:33:59;;;;;;;20.92;8.63;;;;;;;;;;4984024;28;20026;-63
2022/10/30 14:36:44;;;;;;;17.42;7.50;;;;;;;;;;4982714;28;20545;-63
2022/10/30 14:39:09;;;;;;;17.88;7.72;;;;;;;;;;4987187;28;20026;-63
2022/10/30 14:41:38;;;;;;;19.65;7.35;;;;;;;;;;4989572;28;20019;-63
2022/10/30 14:44:18;;;;;;;19.70;7.40;;;;;;;;;;4985178;28;20033;-62
2022/10/30 14:46:52;;;;;;;16.55;6.85;;;;;;;;;;4986016;28;20076;-62
2022/10/30 14:49:27;;;;;;;21.35;8.13;;;;;;;;;;4987357;28;20516;-62
2022/10/30 14:52:09;;;;;;;20.30;8.32;;;;;;;;;;5016332;28;20025;-62
2022/10/30 14:54:40;;;;;;;16.15;7.43;;;;;;;;;;5000029;28;20020;-63
2022/10/30 14:57:18;;;;;;;19.00;7.65;;;;;;;;;;4991437;28;20479;-62
2022/10/30 14:59:44;;;;;;;20.38;7.18;;;;;;;;;;4985355;28;20022;-62
2022/10/30 15:02:12;;;;;;;18.08;7.30;;;;;;;;;;4991750;28;20503;-62
2022/10/30 15:04:58;;;;;;;24.48;7.70;;;;;;;;;;4982600;28;20022;-63
2022/10/30 15:07:44;;;;;;;19.38;8.18;;;;;;;;;;4991025;28;20034;-63
2022/10/30 15:10:12;;;;;;;24.60;8.30;;;;;;;;;;4985482;28;20534;-62
2022/10/30 15:12:43;;;;;;;19.52;7.70;;;;;;;;;;4989578;28;20470;-62
2022/10/30 15:15:12;;;;;;;21.17;7.32;;;;;;;;;;4982643;28;20058;-62
2022/10/30 15:17:43;;;;;;;17.58;7.95;;;;;;;;;;4990476;28;20049;-62
2022/10/30 15:20:14;;;;;;;25.00;9.20;;;;;;;;;;4985186;28;20026;-62
2022/10/30 15:22:39;;;;;;;21.58;8.63;;;;;;;;;;4991874;28;20124;-62
2022/10/30 15:25:12;;;;;;;23.70;8.80;;;;;;;;;;4980515;28;20452;-63
2022/10/30 15:27:39;;;;;;;25.02;8.88;;;;;;;;;;4982492;28;20030;-63
2022/10/30 15:30:05;;;;;;;21.90;9.98;;;;;;;;;;4986236;28;20062;-63
2022/10/30 15:32:30;;;;;;;25.33;8.70;;;;;;;;;;4991446;28;20129;-62
2022/10/30 15:34:58;;;;;;;18.75;9.25;;;;;;;;;;4979827;28;20368;-62
2022/10/30 15:37:24;;;;;;;20.35;9.00;;;;;;;;;;4985512;28;20027;-62
2022/10/30 15:39:49;;;;;;;21.00;8.85;;;;;;;;;;4990529;28;20508;-62
2022/10/30 15:42:15;;;;;;;21.10;9.23;;;;;;;;;;4972865;28;20065;-63
2022/10/30 15:44:41;;;;;;;26.48;9.30;;;;;;;;;;4968208;28;20101;-62
2022/10/30 15:47:17;;;;;;;21.45;8.98;;;;;;;;;;4970766;28;20393;-63
2022/10/30 15:49:49;;;;;;;26.10;9.68;;;;;;;;;;4973017;28;20466;-62
2022/10/30 15:52:18;;;;;;;25.50;10.38;;;;;;;;;;4968252;28;20092;-63
2022/10/30 15:54:44;;;;;;;21.88;10.02;;;;;;;;;;4967967;28;20394;-63
2022/10/30 15:57:29;;;;;;;26.73;11.27;;;;;;;;;;4964337;28;20049;-64
2022/10/30 15:59:55;;;;;;;24.23;10.73;;;;;;;;;;4970524;28;20405;-64
2022/10/30 16:02:22;;;;;;;22.95;10.05;;;;;;;;;;4972448;28;20113;-63
2022/10/30 16:04:47;;;;;;;25.15;11.38;;;;;;;;;;4967134;28;20117;-62
2022/10/30 16:07:20;;;;;;;30.05;11.25;;;;;;;;;;4970332;28;20121;-63
2022/10/30 16:09:55;;;;;;;28.48;12.38;;;;;;;;;;4974501;28;20530;-63
2022/10/30 16:12:25;;;;;;;25.08;12.13;;;;;;;;;;4974227;28;20031;-62
2022/10/30 16:14:50;;;;;;;33.40;13.38;;;;;;;;;;4965755;28;20455;-63
2022/10/30 16:17:16;;;;;;;26.15;13.13;;;;;;;;;;4973563;28;20034;-62
2022/10/30 16:19:45;;;;;;;25.73;13.00;;;;;;;;;;4973992;28;20039;-62
2022/10/30 16:22:13;;;;;;;26.77;13.20;;;;;;;;;;4968260;28;22304;-63
2022/10/30 16:24:39;;;;;;;25.80;12.52;;;;;;;;;;4968507;28;20022;-63
2022/10/30 16:27:15;;;;;;;27.27;12.88;;;;;;;;;;4971941;28;20386;-62
2022/10/30 16:29:40;;;;;;;28.15;12.90;;;;;;;;;;4969629;28;20076;-63
2022/10/30 16:32:11;;;;;;;30.20;12.95;;;;;;;;;;4971795;28;20489;-62
2022/10/30 16:34:36;;;;;;;28.30;13.73;;;;;;;;;;4961363;28;20034;-63
2022/10/30 16:37:02;;;;;;;29.20;13.13;;;;;;;;;;4973735;28;20027;-62
2022/10/30 16:39:28;;;;;;;34.63;14.48;;;;;;;;;;4974930;28;20034;-61
2022/10/30 16:41:57;;;;;;;31.23;14.85;;;;;;;;;;4975235;28;20082;-62
2022/10/30 16:44:29;;;;;;;25.52;13.77;;;;;;;;;;4970653;28;20069;-62
2022/10/30 16:46:55;;;;;;;32.90;14.40;;;;;;;;;;4975127;28;20026;-62
2022/10/30 16:49:22;;;;;;;28.65;15.13;;;;;;;;;;4975534;28;20034;-62
2022/10/30 16:51:52;;;;;;;39.67;16.00;;;;;;;;;;4976792;28;20393;-63
2022/10/30 16:54:18;;;;;;;35.33;16.55;;;;;;;;;;4965666;28;20030;-62
2022/10/30 16:56:47;;;;;;;39.72;17.73;;;;;;;;;;4975620;28;20089;-64
2022/10/30 16:59:15;;;;;;;37.92;16.98;;;;;;;;;;4968250;28;20072;-62
2022/10/30 17:01:40;;;;;;;43.13;17.77;;;;;;;;;;4974024;28;20035;-62
2022/10/30 17:04:06;;;;;;;33.55;17.45;;;;;;;;;;4962704;28;20363;-63
2022/10/30 17:06:44;;;;;;;37.88;17.27;;;;;;;;;;4968853;28;20018;-62
2022/10/30 17:09:19;;;;;;;33.83;17.20;;;;;;;;;;4970439;28;20018;-63
2022/10/30 17:11:46;;;;;;;43.33;19.95;;;;;;;;;;4975734;28;20027;-62
2022/10/30 17:14:16;;;;;;;47.43;20.13;;;;;;;;;;4967701;28;20079;-62
2022/10/30 17:16:49;;;;;;;46.47;22.13;;;;;;;;;;4974594;28;20015;-63
2022/10/30 17:19:40;;;;;;;46.83;22.87;;;;;;;;;;4975577;28;20025;-62
2022/10/30 17:22:24;;;;;;;50.30;24.20;;;;;;;;;;4973874;28;20500;-61
2022/10/30 17:25:08;;;;;;;49.93;23.43;;;;;;;;;;4963441;28;20030;-62
2022/10/30 17:27:52;;;;;;;48.90;22.60;;;;;;;;;;4969645;28;20163;-63
2022/10/30 17:30:36;;;;;;;49.50;22.47;;;;;;;;;;4974578;28;20396;-63
2022/10/30 17:33:20;;;;;;;54.27;24.90;;;;;;;;;;4975117;28;20030;-62
2022/10/30 17:36:04;;;;;;;49.43;24.33;;;;;;;;;;4972030;28;20533;-62
2022/10/30 17:38:48;;;;;;;53.77;24.73;;;;;;;;;;4970665;28;20034;-62
2022/10/30 17:41:31;;;;;;;56.53;25.17;;;;;;;;;;4983109;28;20508;-62
2022/10/30 17:44:15;;;;;;;54.73;26.13;;;;;;;;;;4996848;28;20469;-63
2022/10/30 17:46:59;;;;;;;61.33;27.53;;;;;;;;;;4971993;28;20129;-63
2022/10/30 17:49:43;;;;;;;58.17;26.70;;;;;;;;;;4973292;28;20072;-62
2022/10/30 17:52:26;;;;;;;59.87;27.57;;;;;;;;;;4977219;28;20029;-62
2022/10/30 17:55:10;;;;;;;59.97;28.23;;;;;;;;;;4970769;28;20023;-62
2022/10/30 17:57:54;;;;;;;57.47;27.63;;;;;;;;;;4968385;28;20030;-62
2022/10/30 18:00:38;;;;;;;58.53;28.77;;;;;;;;;;4952279;28;20031;-62
2022/10/30 18:03:22;;;;;;;62.13;28.53;;;;;;;;;;4968721;28;20328;-61
2022/10/30 18:06:05;;;;;;;54.23;25.83;;;;;;;;;;4962779;28;20382;-62
2022/10/30 18:08:49;;;;;;;60.20;28.77;;;;;;;;;;4966789;28;20030;-62
2022/10/30 18:11:33;;;;;;;69.07;30.37;;;;;;;;;;4962830;28;20664;-62
2022/10/30 18:14:17;;;;;;;73.30;31.60;;;;;;;;;;4970444;28;20019;-63
2022/10/30 18:17:01;;;;;;;66.07;30.97;;;;;;;;;;4967704;28;20026;-63
2022/10/30 18:19:45;;;;;;;74.17;32.73;;;;;;;;;;4972765;28;20075;-62
2022/10/30 18:22:28;;;;;;;75.83;35.03;;;;;;;;;;4971458;28;20035;-63
2022/10/30 18:25:12;;;;;;;77.27;32.27;;;;;;;;;;4966843;28;20095;-62
2022/10/30 18:27:56;;;;;;;81.77;35.83;;;;;;;;;;4961123;28;20030;-62
2022/10/30 18:30:39;;;;;;;76.07;34.13;;;;;;;;;;4964635;28;20035;-62
2022/10/30 18:33:23;;;;;;;85.40;34.50;;;;;;;;;;4998376;28;20021;-62
2022/10/30 18:36:07;;;;;;;94.73;39.93;;;;;;;;;;4961429;28;20106;-62
2022/10/30 18:38:55;;;;;;;95.70;40.57;;;;;;;;;;4956196;28;20055;-62
2022/10/30 18:41:38;;;;;;;88.73;38.27;;;;;;;;;;4962702;28;20156;-62
2022/10/30 18:44:22;;;;;;;78.97;37.37;;;;;;;;;;4963349;28;20371;-63
2022/10/30 18:47:06;;;;;;;85.93;37.33;;;;;;;;;;4957979;28;20027;-62
2022/10/30 18:49:50;;;;;;;85.83;37.43;;;;;;;;;;4980107;28;20534;-62
2022/10/30 18:52:33;;;;;;;91.07;37.37;;;;;;;;;;4957796;28;20067;-62
2022/10/30 18:55:17;;;;;;;84.87;37.07;;;;;;;;;;4962598;28;20022;-62
2022/10/30 18:58:01;;;;;;;81.07;35.17;;;;;;;;;;4972573;28;20122;-63
2022/10/30 19:00:45;;;;;;;77.90;34.70;;;;;;;;;;4965961;28;20490;-62
2022/10/30 19:03:29;;;;;;;71.97;33.30;;;;;;;;;;4957650;28;20027;-63
2022/10/30 19:06:12;;;;;;;83.40;35.97;;;;;;;;;;5025563;28;20046;-62
2022/10/30 19:08:56;;;;;;;90.13;37.67;;;;;;;;;;4962228;28;20046;-62
2022/10/30 19:11:40;;;;;;;87.87;37.20;;;;;;;;;;4967248;28;20023;-62
2022/10/30 19:14:24;;;;;;;90.30;37.90;;;;;;;;;;4972951;28;20444;-62
2022/10/30 19:17:08;;;;;;;78.97;35.50;;;;;;;;;;4977778;28;20092;-62
2022/10/30 19:19:51;;;;;;;81.43;35.10;;;;;;;;;;4969536;28;20096;-62
2022/10/30 19:22:35;;;;;;;88.53;38.57;;;;;;;;;;4967682;28;20066;-62
2022/10/30 19:25:19;;;;;;;95.70;38.80;;;;;;;;;;4967720;28;20529;-62
2022/10/30 19:28:03;;;;;;;107.70;41.50;;;;;;;;;;5002054;28;20038;-63
2022/10/30 19:30:50;;;;;;;91.73;39.27;;;;;;;;;;4969318;28;20788;-62
2022/10/30 19:33:33;;;;;;;102.07;42.47;;;;;;;;;;4971184;28;20035;-62
2022/10/30 19:36:17;;;;;;;103.97;44.20;;;;;;;;;;4964638;28;20035;-62
2022/10/30 19:39:01;;;;;;;113.40;43.40;;;;;;;;;;4951559;28;20030;-62
2022/10/30 19:41:45;;;;;;;108.07;44.03;;;;;;;;;;5014897;28;20139;-62
2022/10/30 19:44:29;;;;;;;110.43;44.40;;;;;;;;;;4952587;28;20846;-64
2022/10/30 19:47:12;;;;;;;116.43;48.13;;;;;;;;;;4968777;28;20037;-62
2022/10/30 19:49:56;;;;;;;122.43;47.73;;;;;;;;;;4968975;28;20045;-62
2022/10/30 19:52:40;;;;;;;108.57;44.23;;;;;;;;;;4968488;28;20504;-62
2022/10/30 19:55:24;;;;;;;108.83;44.47;;;;;;;;;;4966747;28;20034;-62
2022/10/30 19:58:08;;;;;;;104.47;43.30;;;;;;;;;;4975258;28;20033;-62
2022/10/30 20:00:55;;;;;;;104.37;41.13;;;;;;;;;;4970959;28;20036;-62
2022/10/30 20:03:38;;;;;;;115.13;43.77;;;;;;;;;;4969777;28;20034;-63
2022/10/30 20:06:22;;;;;;;92.00;41.13;;;;;;;;;;4967448;28;20090;-62
2022/10/30 20:09:06;;;;;;;91.47;40.67;;;;;;;;;;4974724;28;20031;-62
2022/10/30 20:11:49;;;;;;;112.37;44.50;;;;;;;;;;4975339;28;20482;-62
2022/10/30 20:14:33;;;;;;;98.47;43.57;;;;;;;;;;4968208;28;20076;-62
2022/10/30 20:17:17;;;;;;;103.93;44.30;;;;;;;;;;4969381;28;20029;-63
2022/10/30 20:20:01;;;;;;;108.63;50.33;;;;;;;;;;4976290;28;20486;-64
2022/10/30 20:22:45;;;;;;;98.00;47.60;;;;;;;;;;4976881;28;20034;-62
2022/10/30 20:25:29;;;;;;;97.13;45.87;;;;;;;;;;4965605;28;20041;-62
2022/10/30 20:28:13;;;;;;;81.37;40.33;;;;;;;;;;4968120;28;20168;-63
2022/10/30 20:30:56;;;;;;;90.83;42.87;;;;;;;;;;4968851;28;20029;-63
2022/10/30 20:33:40;;;;;;;64.50;35.40;;;;;;;;;;4966306;28;20069;-63
2022/10/30 20:36:24;;;;;;;60.57;32.27;;;;;;;;;;4965210;28;20053;-63
2022/10/30 20:39:08;;;;;;;64.17;31.80;;;;;;;;;;4985422;28;20035;-62
2022/10/30 20:41:52;;;;;;;63.23;30.37;;;;;;;;;;4967683;28;20034;-62
2022/10/30 20:44:35;;;;;;;53.87;27.63;;;;;;;;;;4964431;28;20569;-62
2022/10/30 20:47:19;;;;;;;66.40;36.07;;;;;;;;;;4975118;28;20046;-62
2022/10/30 20:50:03;;;;;;;81.93;43.63;;;;;;;;;;4973990;28;20431;-62
2022/10/30 20:52:47;;;;;;;61.97;33.93;;;;;;;;;;4974294;28;20053;-63
2022/10/30 20:55:31;;;;;;;124.97;64.63;;;;;;;;;;4967553;28;20118;-64
2022/10/30 20:58:15;;;;;;;136.03;68.43;;;;;;;;;;4965576;28;20027;-62
2022/10/30 21:00:58;;;;;;;110.57;51.90;;;;;;;;;;4967813;28;20031;-62
2022/10/30 21:03:42;;;;;;;138.03;67.53;;;;;;;;;;4969081;28;20034;-62
2022/10/30 21:06:26;;;;;;;126.67;55.23;;;;;;;;;;5012506;28;20035;-62
2022/10/30 21:09:10;;;;;;;130.37;53.70;;;;;;;;;;4969297;28;20026;-63
2022/10/30 21:11:53;;;;;;;140.20;59.33;;;;;;;;;;4962562;28;20035;-62
2022/10/30 21:14:37;;;;;;;140.77;60.23;;;;;;;;;;4969029;28;20096;-62
2022/10/30 21:17:21;;;;;;;149.10;64.77;;;;;;;;;;4961207;28;20026;-63
2022/10/30 21:20:05;;;;;;;150.67;64.03;;;;;;;;;;4970776;28;20034;-63
2022/10/30 21:22:48;;;;;;;149.00;60.27;;;;;;;;;;4961797;28;21990;-62
2022/10/30 21:25:32;;;;;;;152.80;64.40;;;;;;;;;;4977226;28;20034;-63
2022/10/30 21:28:16;;;;;;;147.37;64.97;;;;;;;;;;4974311;28;20145;-62
2022/10/30 21:31:00;;;;;;;149.07;65.53;;;;;;;;;;4972947;28;20038;-63
2022/10/30 21:33:44;;;;;;;135.47;62.80;;;;;;;;;;4967552;28;20033;-64
2022/10/30 21:36:28;;;;;;;148.77;63.73;;;;;;;;;;4973614;28;20044;-63
2022/10/30 21:39:12;;;;;;;154.20;64.63;;;;;;;;;;4974853;28;20113;-63
2022/10/30 21:41:56;;;;;;;146.80;63.93;;;;;;;;;;4978513;28;20057;-62
2022/10/30 21:44:39;;;;;;;136.17;63.07;;;;;;;;;;4971772;28;20382;-63
2022/10/30 21:47:23;;;;;;;136.30;60.03;;;;;;;;;;4968187;28;20022;-64
2022/10/30 21:50:07;;;;;;;129.33;58.70;;;;;;;;;;4974019;28;20026;-62
2022/10/30 21:52:51;;;;;;;137.40;59.50;;;;;;;;;;4973273;28;20474;-64
2022/10/30 21:55:35;;;;;;;139.17;59.53;;;;;;;;;;4978422;28;20100;-62
2022/10/30 21:58:19;;;;;;;129.97;59.17;;;;;;;;;;4972167;28;20030;-63
2022/10/30 22:01:03;;;;;;;135.10;58.80;;;;;;;;;;4961322;28;20058;-63
2022/10/30 22:03:46;;;;;;;134.80;58.83;;;;;;;;;;4976072;28;22562;-62
2022/10/30 22:06:30;;;;;;;134.70;60.70;;;;;;;;;;4973061;28;20034;-64
2022/10/30 22:09:14;;;;;;;141.80;61.07;;;;;;;;;;4969606;28;20049;-62
2022/10/30 22:11:58;;;;;;;133.30;59.57;;;;;;;;;;4969912;28;20023;-62
2022/10/30 22:14:41;;;;;;;132.67;60.43;;;;;;;;;;4988022;28;20034;-63
2022/10/30 22:17:25;;;;;;;128.87;56.60;;;;;;;;;;4973628;28;20026;-63
2022/10/30 22:20:09;;;;;;;120.07;53.53;;;;;;;;;;4997902;28;20027;-63
2022/10/30 22:22:53;;;;;;;119.63;52.83;;;;;;;;;;4974969;28;20029;-63
2022/10/30 22:25:37;;;;;;;111.63;49.73;;;;;;;;;;4994241;28;20401;-63
2022/10/30 22:28:20;;;;;;;103.97;47.77;;;;;;;;;;4980231;28;20019;-63
2022/10/30 22:31:04;;;;;;;104.30;45.50;;;;;;;;;;4970015;28;20026;-62
2022/10/30 22:33:48;;;;;;;104.93;46.67;;;;;;;;;;4968644;28;20019;-62
2022/10/30 22:36:32;;;;;;;95.53;45.40;;;;;;;;;;4975556;28;20055;-62
2022/10/30 22:39:16;;;;;;;93.33;43.60;;;;;;;;;;4969399;28;20033;-62
2022/10/30 22:41:59;;;;;;;96.07;44.53;;;;;;;;;;4970816;28;20023;-62
2022/10/30 22:44:43;;;;;;;90.77;43.70;;;;;;;;;;4967541;28;20027;-63
2022/10/30 22:47:27;;;;;;;90.33;42.70;;;;;;;;;;4970331;28;20026;-63
2022/10/30 22:50:10;;;;;;;100.20;43.23;;;;;;;;;;4970722;28;20374;-63
2022/10/30 22:52:54;;;;;;;96.00;42.80;;;;;;;;;;4972360;28;20054;-63
2022/10/30 22:55:38;;;;;;;98.40;44.50;;;;;;;;;;4980729;28;20026;-63
2022/10/30 22:58:22;;;;;;;105.10;46.87;;;;;;;;;;4979363;28;20624;-63
2022/10/30 23:01:06;;;;;;;106.33;48.67;;;;;;;;;;4976239;28;20035;-62
2022/10/30 23:03:50;;;;;;;107.33;48.40;;;;;;;;;;4981680;28;20531;-62
2022/10/30 23:06:34;;;;;;;120.07;49.77;;;;;;;;;;4984110;28;20026;-63
2022/10/30 23:09:20;;;;;;;119.90;52.23;;;;;;;;;;4981979;28;20031;-63
2022/10/30 23:12:04;;;;;;;115.33;50.23;;;;;;;;;;4982346;28;20026;-62
2022/10/30 23:14:47;;;;;;;118.07;49.97;;;;;;;;;;4979119;28;20037;-63
2022/10/30 23:17:31;;;;;;;133.10;53.27;;;;;;;;;;4978275;28;20363;-63
2022/10/30 23:20:15;;;;;;;159.40;61.20;;;;;;;;;;4977421;28;20041;-62
2022/10/30 23:22:59;;;;;;;169.87;63.80;;;;;;;;;;4979005;28;20497;-62
2022/10/30 23:25:43;;;;;;;168.20;63.03;;;;;;;;;;4980031;28;20489;-63
2022/10/30 23:28:26;;;;;;;178.43;67.30;;;;;;;;;;4978060;28;20113;-63
2022/10/30 23:31:10;;;;;;;191.13;71.63;;;;;;;;;;4976533;28;20089;-62
2022/10/30 23:33:54;;;;;;;213.50;75.13;;;;;;;;;;4973827;28;20026;-62
2022/10/30 23:36:38;;;;;;;199.63;71.40;;;;;;;;;;4975556;28;20062;-62
2022/10/30 23:39:22;;;;;;;219.47;76.87;;;;;;;;;;4978960;28;20037;-62
2022/10/30 23:42:05;;;;;;;218.70;73.47;;;;;;;;;;4981428;28;20041;-63
2022/10/30 23:44:49;;;;;;;205.70;71.53;;;;;;;;;;4978569;28;20390;-62
2022/10/30 23:47:33;;;;;;;221.37;77.90;;;;;;;;;;4980902;28;20026;-62
2022/10/30 23:50:17;;;;;;;210.13;77.13;;;;;;;;;;4975149;28;20493;-63
2022/10/30 23:53:00;;;;;;;198.80;71.67;;;;;;;;;;4978975;28;20084;-63
2022/10/30 23:55:45;;;;;;;211.77;72.53;;;;;;;;;;4980615;28;20034;-63
2022/10/30 23:58:28;;;;;;;223.10;76.60;;;;;;;;;;4973983;28;20031;-63
